createdAt,value
2018-01-17T00:00:42.629Z,98611.70
2018-01-17T00:03:10.953Z,98618.51
2018-01-17T00:05:39.377Z,98617.28
2018-01-17T00:08:07.769Z,98610.16
2018-01-17T00:10:36.085Z,98613.66
2018-01-17T00:13:04.452Z,98611.43
2018-01-17T00:15:34.666Z,98613.07
2018-01-17T00:18:03.819Z,98611.75
2018-01-17T00:20:32.145Z,98610.87
2018-01-17T00:23:01.257Z,98610.04
2018-01-17T00:25:29.613Z,98607.85
2018-01-17T00:27:58.717Z,98609.59
2018-01-17T00:30:27.842Z,98612.19
2018-01-17T00:32:56.201Z,98613.00
2018-01-17T00:35:25.314Z,98614.29
2018-01-17T00:37:53.664Z,98608.64
2018-01-17T00:40:22.760Z,98605.19
2018-01-17T00:42:51.145Z,98611.08
2018-01-17T00:45:19.493Z,98605.29
2018-01-17T00:47:47.864Z,98603.39
2018-01-17T00:50:16.176Z,98607.80
2018-01-17T00:52:44.612Z,98571.59
2018-01-17T00:55:12.957Z,98610.66
2018-01-17T00:57:41.324Z,98620.56
2018-01-17T01:00:09.676Z,98609.19
2018-01-17T01:02:38.848Z,98610.58
2018-01-17T01:05:07.192Z,98605.14
2018-01-17T01:07:35.552Z,98607.94
2018-01-17T01:10:03.944Z,98607.93
2018-01-17T01:12:32.268Z,98617.42
2018-01-17T01:15:01.460Z,98624.80
2018-01-17T01:17:29.784Z,98623.50
2018-01-17T01:19:58.112Z,98617.52
2018-01-17T01:22:26.480Z,98606.94
2018-01-17T01:24:55.012Z,98609.31
2018-01-17T01:27:23.480Z,98604.67
2018-01-17T01:29:52.669Z,98606.86
2018-01-17T01:32:21.421Z,98608.12
2018-01-17T01:34:49.793Z,98595.50
2018-01-17T01:37:18.185Z,98591.57
2018-01-17T01:39:46.557Z,98594.91
2018-01-17T01:42:15.145Z,98590.41
2018-01-17T01:44:43.545Z,98592.94
2018-01-17T01:47:11.977Z,98598.44
2018-01-17T01:49:40.553Z,98593.13
2018-01-17T01:52:08.917Z,98596.94
2018-01-17T01:54:37.308Z,98595.58
2018-01-17T01:57:05.665Z,98596.81
2018-01-17T01:59:34.825Z,98602.81
2018-01-17T02:02:03.185Z,98608.02
2018-01-17T02:04:31.564Z,98604.47
2018-01-17T02:06:59.896Z,98606.20
2018-01-17T02:09:28.995Z,98604.82
2018-01-17T02:11:57.368Z,98611.69
2018-01-17T02:14:26.512Z,98602.48
2018-01-17T02:16:54.911Z,98600.73
2018-01-17T02:19:23.277Z,98595.52
2018-01-17T02:21:51.640Z,98598.94
2018-01-17T02:24:20.011Z,98588.55
2018-01-17T02:26:48.324Z,98588.44
2018-01-17T02:29:17.431Z,98584.10
2018-01-17T02:31:45.787Z,98588.42
2018-01-17T02:34:14.107Z,98583.58
2018-01-17T02:36:42.472Z,98579.62
2018-01-17T02:39:13.482Z,98573.95
2018-01-17T02:41:41.856Z,98577.11
2018-01-17T02:44:10.202Z,98573.26
2018-01-17T02:46:39.692Z,98578.13
2018-01-17T02:49:08.812Z,98579.09
2018-01-17T02:51:37.160Z,98583.23
2018-01-17T02:54:05.535Z,98580.38
2018-01-17T02:56:34.609Z,98579.30
2018-01-17T02:59:03.723Z,98577.41
2018-01-17T03:01:32.839Z,98576.77
2018-01-17T03:04:01.199Z,98574.81
2018-01-17T03:06:29.600Z,98570.69
2018-01-17T03:08:58.172Z,98574.83
2018-01-17T03:11:26.487Z,98574.55
2018-01-17T03:13:54.859Z,98578.58
2018-01-17T03:16:23.599Z,98575.20
2018-01-17T03:18:51.963Z,98579.67
2018-01-17T03:21:21.115Z,98568.08
2018-01-17T03:23:49.615Z,98572.16
2018-01-17T03:26:18.020Z,98566.90
2018-01-17T03:28:47.162Z,98572.23
2018-01-17T03:31:15.532Z,98565.33
2018-01-17T03:33:43.854Z,98566.20
2018-01-17T03:36:12.219Z,98567.09
2018-01-17T03:38:40.567Z,98567.16
2018-01-17T03:41:08.996Z,98564.72
2018-01-17T03:43:37.388Z,98558.42
2018-01-17T03:46:06.576Z,98552.75
2018-01-17T03:48:35.744Z,98556.67
2018-01-17T03:51:04.148Z,98549.77
2018-01-17T03:53:32.537Z,98546.63
2018-01-17T03:56:01.713Z,98548.11
2018-01-17T03:58:30.084Z,98548.44
2018-01-17T04:00:58.507Z,98554.91
2018-01-17T04:03:26.928Z,98546.20
2018-01-17T04:05:55.332Z,98552.81
2018-01-17T04:08:23.752Z,98551.03
2018-01-17T04:10:52.879Z,98548.98
2018-01-17T04:13:22.031Z,98559.06
2018-01-17T04:15:50.366Z,98568.16
2018-01-17T04:18:18.734Z,98560.80
2018-01-17T04:20:47.051Z,98556.03
2018-01-17T04:23:15.786Z,98556.92
2018-01-17T04:25:44.151Z,98549.62
2018-01-17T04:28:12.510Z,98542.35
2018-01-17T04:30:40.874Z,98537.16
2018-01-17T04:33:10.638Z,98541.59
2018-01-17T04:35:39.734Z,98555.45
2018-01-17T04:38:08.062Z,98552.87
2018-01-17T04:40:36.451Z,98558.06
2018-01-17T04:43:05.227Z,98561.49
2018-01-17T04:45:34.370Z,98558.84
2018-01-17T04:48:02.738Z,98563.59
2018-01-17T04:50:31.198Z,98556.73
2018-01-17T04:52:59.522Z,98562.36
2018-01-17T04:55:27.846Z,98567.93
2018-01-17T04:57:56.606Z,98559.19
2018-01-17T05:00:24.962Z,98561.33
2018-01-17T05:02:53.507Z,98558.27
2018-01-17T05:05:22.246Z,98561.20
2018-01-17T05:07:50.610Z,98570.73
2018-01-17T05:10:19.719Z,98570.68
2018-01-17T05:12:48.086Z,98567.12
2018-01-17T05:15:16.455Z,98563.09
2018-01-17T05:17:44.989Z,98557.30
2018-01-17T05:20:13.302Z,98550.19
2018-01-17T05:22:41.640Z,98550.16
2018-01-17T05:25:10.082Z,98553.20
2018-01-17T05:27:38.406Z,98552.22
2018-01-17T05:30:06.770Z,98553.94
2018-01-17T05:32:35.866Z,98554.81
2018-01-17T05:35:04.966Z,98551.80
2018-01-17T05:37:33.330Z,98546.25
2018-01-17T05:40:02.066Z,98542.30
2018-01-17T05:42:30.389Z,98540.69
2018-01-17T05:44:59.526Z,98539.45
2018-01-17T05:47:27.849Z,98543.91
2018-01-17T05:49:57.829Z,98542.82
2018-01-17T05:52:26.238Z,98540.31
2018-01-17T05:54:55.386Z,98530.02
2018-01-17T05:57:23.746Z,98529.60
2018-01-17T05:59:52.470Z,98530.34
2018-01-17T06:02:20.842Z,98529.45
2018-01-17T06:04:49.556Z,98534.56
2018-01-17T06:07:17.920Z,98531.64
2018-01-17T06:09:46.237Z,98534.66
2018-01-17T06:12:15.742Z,98533.19
2018-01-17T06:14:44.513Z,98538.34
2018-01-17T06:17:12.833Z,98544.86
2018-01-17T06:19:41.189Z,98546.52
2018-01-17T06:22:09.898Z,98541.26
2018-01-17T06:24:38.650Z,98534.94
2018-01-17T06:27:07.366Z,98536.69
2018-01-17T06:29:36.334Z,98533.63
2018-01-17T06:32:05.099Z,98533.38
2018-01-17T06:34:33.425Z,98537.78
2018-01-17T06:37:01.758Z,98541.72
2018-01-17T06:39:30.122Z,98546.52
2018-01-17T06:41:58.453Z,98546.02
2018-01-17T06:44:27.584Z,98541.12
2018-01-17T06:46:55.926Z,98545.98
2018-01-17T06:49:25.226Z,98537.78
2018-01-17T06:51:53.977Z,98530.27
2018-01-17T06:54:22.353Z,98533.75
2018-01-17T06:56:50.765Z,98542.61
2018-01-17T06:59:19.189Z,98538.47
2018-01-17T07:01:47.526Z,98534.39
2018-01-17T07:04:15.873Z,98535.36
2018-01-17T07:06:45.105Z,98538.53
2018-01-17T07:09:14.245Z,98540.05
2018-01-17T07:11:43.349Z,98549.61
2018-01-17T07:14:13.229Z,98550.23
2018-01-17T07:16:42.402Z,98548.59
2018-01-17T07:19:11.122Z,98545.78
2018-01-17T07:21:39.477Z,98552.52
2018-01-17T07:24:07.793Z,98557.44
2018-01-17T07:26:36.533Z,98561.37
2018-01-17T07:29:05.341Z,98561.90
2018-01-17T07:31:34.459Z,98562.44
2018-01-17T07:34:02.841Z,98565.98
2018-01-17T07:36:31.193Z,98563.71
2018-01-17T07:39:00.333Z,98565.16
2018-01-17T07:41:28.685Z,98571.83
2018-01-17T07:43:57.969Z,98565.94
2018-01-17T07:46:26.341Z,98568.70
2018-01-17T07:48:55.429Z,98562.78
2018-01-17T07:51:23.793Z,98570.34
2018-01-17T07:53:52.125Z,98569.30
2018-01-17T07:56:20.504Z,98571.67
2018-01-17T07:58:48.848Z,98575.43
2018-01-17T08:01:17.201Z,98574.81
2018-01-17T08:03:45.562Z,98577.16
2018-01-17T08:06:14.665Z,98581.30
2018-01-17T08:08:43.793Z,98585.95
2018-01-17T08:11:12.921Z,98580.12
2018-01-17T08:13:41.251Z,98577.50
2018-01-17T08:16:09.621Z,98580.45
2018-01-17T08:18:38.365Z,98578.59
2018-01-17T08:21:06.749Z,98581.61
2018-01-17T08:23:35.143Z,98578.11
2018-01-17T08:26:04.281Z,98577.00
2018-01-17T08:28:32.640Z,98576.35
2018-01-17T08:31:01.373Z,98582.81
2018-01-17T08:33:29.695Z,98578.23
2018-01-17T08:35:58.453Z,98587.25
2018-01-17T08:38:26.795Z,98591.33
2018-01-17T08:40:55.150Z,98592.12
2018-01-17T08:43:23.474Z,98591.39
2018-01-17T08:45:51.830Z,98594.95
2018-01-17T08:48:20.195Z,98596.30
2018-01-17T08:50:48.555Z,98594.25
2018-01-17T08:53:16.882Z,98596.97
2018-01-17T08:55:45.201Z,98603.48
2018-01-17T08:58:14.321Z,98602.03
2018-01-17T09:00:42.661Z,98606.81
2018-01-17T09:03:11.821Z,98604.98
2018-01-17T09:05:40.129Z,98608.31
2018-01-17T09:08:09.255Z,98611.09
2018-01-17T09:10:37.581Z,98615.31
2018-01-17T09:13:06.362Z,98609.91
2018-01-17T09:15:34.710Z,98613.27
2018-01-17T09:18:03.029Z,98614.80
2018-01-17T09:20:31.416Z,98615.81
2018-01-17T09:22:59.769Z,98611.38
2018-01-17T09:25:28.102Z,98620.49
2018-01-17T09:27:56.849Z,98619.67
2018-01-17T09:30:25.582Z,98622.04
2018-01-17T09:32:54.712Z,98631.27
2018-01-17T09:35:23.036Z,98641.60
2018-01-17T09:37:52.137Z,98642.29
2018-01-17T09:40:21.245Z,98642.34
2018-01-17T09:42:49.602Z,98594.95
2018-01-17T09:45:18.759Z,98644.75
2018-01-17T09:47:47.080Z,98654.56
2018-01-17T09:50:16.154Z,98654.98
2018-01-17T09:52:44.504Z,98659.66
2018-01-17T09:55:12.822Z,98668.70
2018-01-17T09:57:41.961Z,98671.89
2018-01-17T10:00:10.337Z,98664.47
2018-01-17T10:02:38.654Z,98670.02
2018-01-17T10:05:06.977Z,98669.01
2018-01-17T10:07:35.325Z,98671.94
2018-01-17T10:10:04.436Z,98675.25
2018-01-17T10:12:33.565Z,98682.48
2018-01-17T10:15:01.900Z,98682.70
2018-01-17T10:17:31.021Z,98681.68
2018-01-17T10:19:59.368Z,98685.92
2018-01-17T10:22:28.488Z,98695.39
2018-01-17T10:24:56.848Z,98687.89
2018-01-17T10:27:25.940Z,98694.53
2018-01-17T10:29:55.072Z,98693.70
2018-01-17T10:32:23.396Z,98695.91
2018-01-17T10:34:51.736Z,98703.34
2018-01-17T10:37:20.117Z,98708.03
2018-01-17T10:39:48.454Z,98709.25
2018-01-17T10:42:17.572Z,98719.56
2018-01-17T10:44:45.962Z,98729.89
2018-01-17T10:47:14.281Z,98729.52
2018-01-17T10:49:42.600Z,98727.83
2018-01-17T10:52:10.964Z,98733.31
2018-01-17T10:54:39.284Z,98735.47
2018-01-17T10:57:07.600Z,98743.54
2018-01-17T10:59:36.776Z,98751.31
2018-01-17T11:02:05.088Z,98749.05
2018-01-17T11:04:33.456Z,98759.02
2018-01-17T11:07:02.583Z,98766.90
2018-01-17T11:09:30.913Z,98770.65
2018-01-17T11:11:59.236Z,98774.02
2018-01-17T11:14:27.604Z,98773.95
2018-01-17T11:16:55.925Z,98778.72
2018-01-17T11:19:24.300Z,98779.47
2018-01-17T11:21:52.626Z,98784.42
2018-01-17T11:24:20.964Z,98785.70
2018-01-17T11:26:49.324Z,98792.58
2018-01-17T11:29:17.720Z,98794.28
2018-01-17T11:31:46.084Z,98799.72
2018-01-17T11:34:14.407Z,98804.78
2018-01-17T11:36:43.531Z,98805.29
2018-01-17T11:39:11.868Z,98811.95
2018-01-17T11:41:40.229Z,98814.95
2018-01-17T11:44:08.548Z,98822.08
2018-01-17T11:46:36.916Z,98824.03
2018-01-17T11:49:05.297Z,98823.17
2018-01-17T11:51:33.643Z,98827.97
2018-01-17T11:54:01.956Z,98828.33
2018-01-17T11:56:31.072Z,98837.55
2018-01-17T11:58:59.391Z,98840.78
2018-01-17T12:01:27.739Z,98841.73
2018-01-17T12:03:56.415Z,98848.19
2018-01-17T12:06:24.809Z,98851.78
2018-01-17T12:08:53.101Z,98848.27
2018-01-17T12:11:21.467Z,98852.55
2018-01-17T12:13:49.787Z,98852.83
2018-01-17T12:16:18.916Z,98851.16
2018-01-17T12:18:47.280Z,98851.55
2018-01-17T12:21:15.641Z,98854.75
2018-01-17T12:23:44.723Z,98866.98
2018-01-17T12:26:13.879Z,98861.66
2018-01-17T12:28:42.246Z,98873.14
2018-01-17T12:31:10.599Z,98874.03
2018-01-17T12:33:38.920Z,98871.97
2018-01-17T12:36:07.313Z,98877.36
2018-01-17T12:38:35.644Z,98881.73
2018-01-17T12:41:03.998Z,98883.05
2018-01-17T12:43:33.160Z,98883.90
2018-01-17T12:46:01.535Z,98888.78
2018-01-17T12:48:29.859Z,98893.99
2018-01-17T12:50:58.226Z,98898.73
2018-01-17T12:53:27.319Z,98904.48
2018-01-17T12:55:55.639Z,98912.81
2018-01-17T12:58:23.995Z,98902.73
2018-01-17T13:00:52.351Z,98911.31
2018-01-17T13:03:21.475Z,98911.87
2018-01-17T13:05:49.843Z,98921.74
2018-01-17T13:08:18.199Z,98924.71
2018-01-17T13:10:46.559Z,98928.61
2018-01-17T13:13:14.867Z,98931.19
2018-01-17T13:15:43.959Z,98935.93
2018-01-17T13:18:13.058Z,98935.14
2018-01-17T13:20:41.368Z,98944.52
2018-01-17T13:23:09.731Z,98940.50
2018-01-17T13:25:38.062Z,98954.98
2018-01-17T13:28:07.147Z,98949.98
2018-01-17T13:30:35.514Z,98967.16
2018-01-17T13:33:03.839Z,98967.26
2018-01-17T13:35:32.150Z,98971.65
2018-01-17T13:38:00.524Z,98971.08
2018-01-17T13:40:28.846Z,98977.13
2018-01-17T13:42:57.166Z,98968.98
2018-01-17T13:45:25.530Z,98982.97
2018-01-17T13:47:53.890Z,98978.98
2018-01-17T13:50:23.003Z,98969.64
2018-01-17T13:52:51.322Z,98987.91
2018-01-17T13:55:19.683Z,98994.38
2018-01-17T13:57:48.031Z,98987.73
2018-01-17T14:00:17.138Z,99000.28
2018-01-17T14:02:45.498Z,99011.67
2018-01-17T14:05:14.583Z,99009.48
2018-01-17T14:07:43.715Z,99015.94
2018-01-17T14:10:12.063Z,99018.31
2018-01-17T14:12:41.186Z,99024.75
2018-01-17T14:15:09.554Z,99026.02
2018-01-17T14:17:37.874Z,99030.36
2018-01-17T14:20:06.262Z,99035.89
2018-01-17T14:22:34.639Z,99030.06
2018-01-17T14:25:02.966Z,99037.50
2018-01-17T14:27:31.330Z,99037.94
2018-01-17T14:30:01.290Z,99041.69
2018-01-17T14:32:29.658Z,99039.23
2018-01-17T14:34:58.026Z,99049.22
2018-01-17T14:37:26.359Z,99049.80
2018-01-17T14:39:54.766Z,99057.39
2018-01-17T14:42:23.090Z,99059.19
2018-01-17T14:44:52.370Z,99059.30
2018-01-17T14:47:20.714Z,99061.62
2018-01-17T14:49:49.894Z,99064.51
2018-01-17T14:52:19.026Z,99067.97
2018-01-17T14:54:47.403Z,99073.10
2018-01-17T14:57:15.767Z,99075.00
2018-01-17T14:59:44.078Z,99086.34
2018-01-17T15:02:12.427Z,99082.80
2018-01-17T15:04:40.774Z,99088.92
2018-01-17T15:07:09.908Z,99079.63
2018-01-17T15:09:38.286Z,99094.16
2018-01-17T15:12:06.601Z,99089.80
2018-01-17T15:14:34.933Z,99092.44
2018-01-17T15:17:03.290Z,99103.78
2018-01-17T15:19:32.399Z,99104.29
2018-01-17T15:22:00.787Z,99115.26
2018-01-17T15:24:29.998Z,99125.80
2018-01-17T15:26:59.334Z,99123.67
2018-01-17T15:29:27.684Z,99128.11
2018-01-17T15:31:56.009Z,99133.34
2018-01-17T15:34:25.169Z,99148.58
2018-01-17T15:36:53.489Z,99142.06
2018-01-17T15:39:22.573Z,99149.17
2018-01-17T15:41:50.942Z,99153.15
2018-01-17T15:44:19.310Z,99162.60
2018-01-17T15:46:47.841Z,99160.38
2018-01-17T15:49:16.202Z,99160.92
2018-01-17T15:51:45.319Z,99175.60
2018-01-17T15:54:14.349Z,99179.62
2018-01-17T15:56:42.683Z,99188.62
2018-01-17T15:59:11.085Z,99186.40
2018-01-17T16:01:39.438Z,99208.17
2018-01-17T16:04:07.825Z,99204.64
2018-01-17T16:06:36.137Z,99187.01
2018-01-17T16:09:04.496Z,99209.90
2018-01-17T16:11:32.857Z,99215.20
2018-01-17T16:14:01.181Z,99212.07
2018-01-17T16:16:29.546Z,99229.24
2018-01-17T16:18:57.879Z,99232.45
2018-01-17T16:21:26.265Z,99230.70
2018-01-17T16:23:55.401Z,99232.95
2018-01-17T16:26:23.722Z,99239.17
2018-01-17T16:28:52.082Z,99237.59
2018-01-17T16:31:20.443Z,99251.66
2018-01-17T16:33:49.141Z,99245.88
2018-01-17T16:36:18.300Z,99241.96
2018-01-17T16:38:47.518Z,99250.24
2018-01-17T16:41:15.834Z,99257.72
2018-01-17T16:43:44.201Z,99264.98
2018-01-17T16:46:13.313Z,99257.48
2018-01-17T16:48:41.813Z,99254.31
2018-01-17T16:51:10.226Z,99263.38
2018-01-17T16:53:38.568Z,99266.09
2018-01-17T16:56:06.996Z,99261.83
2018-01-17T16:58:35.972Z,99274.52
2018-01-17T17:01:04.361Z,99272.79
2018-01-17T17:03:33.789Z,99269.75
2018-01-17T17:06:02.966Z,99271.13
2018-01-17T17:08:31.435Z,99283.73
2018-01-17T17:10:59.761Z,99276.78
2018-01-17T17:13:28.093Z,99283.77
2018-01-17T17:15:56.487Z,99282.47
2018-01-17T17:18:24.897Z,99287.25
2018-01-17T17:20:53.234Z,99287.23
2018-01-17T17:23:21.661Z,99294.19
2018-01-17T17:25:50.457Z,99293.69
2018-01-17T17:28:20.347Z,99301.05
2018-01-17T17:30:49.481Z,99300.20
2018-01-17T17:33:19.182Z,99311.96
2018-01-17T17:35:47.573Z,99304.11
2018-01-17T17:38:15.916Z,99307.60
2018-01-17T17:40:44.310Z,99314.64
2018-01-17T17:43:13.105Z,99310.28
2018-01-17T17:45:41.563Z,99308.11
2018-01-17T17:48:09.905Z,99315.52
2018-01-17T17:50:38.234Z,99329.01
2018-01-17T17:53:07.365Z,99317.26
2018-01-17T17:55:35.745Z,99308.12
2018-01-17T17:58:04.641Z,99310.80
2018-01-17T18:00:33.072Z,99311.68
2018-01-17T18:03:01.431Z,99308.64
2018-01-17T18:05:30.537Z,99297.40
2018-01-17T18:07:58.949Z,99313.44
2018-01-17T18:10:27.317Z,99307.79
2018-01-17T18:12:55.719Z,99314.30
2018-01-17T18:15:25.376Z,99308.15
2018-01-17T18:17:53.746Z,99310.33
2018-01-17T18:20:22.877Z,99318.23
2018-01-17T18:22:51.244Z,99320.84
2018-01-17T18:25:19.914Z,99321.25
2018-01-17T18:27:48.289Z,99325.16
2018-01-17T18:30:16.616Z,99331.20
2018-01-17T18:32:44.940Z,99334.22
2018-01-17T18:35:13.337Z,99323.73
2018-01-17T18:37:42.612Z,99332.86
2018-01-17T18:40:11.773Z,99330.67
2018-01-17T18:42:40.134Z,99332.42
2018-01-17T18:45:08.608Z,99335.89
2018-01-17T18:47:38.088Z,99336.27
2018-01-17T18:50:06.854Z,99330.59
2018-01-17T18:52:36.427Z,99336.68
2018-01-17T18:55:05.299Z,99341.46
2018-01-17T18:57:33.648Z,99343.16
2018-01-17T19:00:02.016Z,99337.47
2018-01-17T19:02:30.520Z,99345.30
2018-01-17T19:05:01.008Z,99346.62
2018-01-17T19:07:30.172Z,99350.95
2018-01-17T19:09:58.553Z,99356.13
2018-01-17T19:12:26.876Z,99360.05
2018-01-17T19:14:55.585Z,99362.19
2018-01-17T19:17:23.981Z,99373.51
2018-01-17T19:19:52.400Z,99376.84
2018-01-17T19:22:21.663Z,99378.14
2018-01-17T19:24:51.372Z,99394.36
2018-01-17T19:27:19.740Z,99396.94
2018-01-17T19:29:48.927Z,99400.39
2018-01-17T19:32:18.404Z,99403.21
2018-01-17T19:34:48.061Z,99406.36
2018-01-17T19:37:16.449Z,99406.47
2018-01-17T19:39:45.295Z,99411.73
2018-01-17T19:42:14.133Z,99407.39
2018-01-17T19:44:42.605Z,99404.43
2018-01-17T19:47:10.964Z,99415.30
2018-01-17T19:49:39.492Z,99418.00
2018-01-17T19:52:09.227Z,99421.53
2018-01-17T19:54:37.771Z,99423.75
2018-01-17T19:57:07.183Z,99427.67
2018-01-17T19:59:36.523Z,99438.09
2018-01-17T20:02:05.024Z,99440.66
2018-01-17T20:04:35.021Z,99441.99
2018-01-17T20:07:03.631Z,99442.41
2018-01-17T20:09:32.833Z,99444.14
2018-01-17T20:12:01.391Z,99451.50
2018-01-17T20:14:29.816Z,99444.99
2018-01-17T20:16:58.289Z,99452.78
2018-01-17T20:19:27.477Z,99453.22
2018-01-17T20:21:58.876Z,99459.27
2018-01-17T20:24:31.755Z,99457.98
2018-01-17T20:27:00.403Z,99465.33
2018-01-17T20:29:28.831Z,99471.42
2018-01-17T20:31:57.256Z,99476.64
2018-01-17T20:34:27.515Z,99470.55
2018-01-17T20:36:56.123Z,99477.48
2018-01-17T20:39:30.676Z,99485.30
2018-01-17T20:41:59.031Z,99492.25
2018-01-17T20:44:28.333Z,99493.99
2018-01-17T20:46:58.641Z,99501.38
2018-01-17T20:49:27.071Z,99498.75
2018-01-17T20:51:55.472Z,99503.97
2018-01-17T20:54:23.955Z,99508.31
2018-01-17T20:56:53.111Z,99503.09
2018-01-17T20:59:21.637Z,99507.88
2018-01-17T21:01:50.804Z,99516.54
2018-01-17T21:04:19.867Z,99507.41
2018-01-17T21:06:49.092Z,99514.74
2018-01-17T21:09:17.479Z,99510.83
2018-01-17T21:11:45.824Z,99522.53
2018-01-17T21:14:14.784Z,99524.27
2018-01-17T21:16:43.211Z,99525.98
2018-01-17T21:19:11.571Z,99535.47
2018-01-17T21:21:40.470Z,99533.77
2018-01-17T21:24:08.811Z,99536.85
2018-01-17T21:26:37.363Z,99542.94
2018-01-17T21:29:05.744Z,99548.52
2018-01-17T21:31:34.123Z,99536.37
2018-01-17T21:34:04.207Z,99552.00
2018-01-17T21:36:32.631Z,99551.13
2018-01-17T21:39:01.795Z,99561.17
2018-01-17T21:41:30.115Z,99565.48
2018-01-17T21:44:05.660Z,99562.84
2018-01-17T21:46:36.390Z,99573.75
2018-01-17T21:49:05.495Z,99578.11
2018-01-17T21:51:33.871Z,99587.24
2018-01-17T21:54:02.270Z,99595.08
2018-01-17T21:56:30.679Z,99599.02
2018-01-17T21:58:59.006Z,99602.91
2018-01-17T22:01:27.346Z,99605.95
2018-01-17T22:03:55.723Z,99602.50
2018-01-17T22:06:24.099Z,99612.05
2018-01-17T22:08:52.435Z,99621.21
2018-01-17T22:11:20.791Z,99621.17
2018-01-17T22:13:49.119Z,99620.75
2018-01-17T22:16:17.499Z,99627.27
2018-01-17T22:18:45.898Z,99630.34
2018-01-17T22:21:14.630Z,99638.61
2018-01-17T22:23:43.000Z,99635.13
2018-01-17T22:26:11.382Z,99639.05
2018-01-17T22:28:39.708Z,99645.55
2018-01-17T22:31:08.070Z,99655.09
2018-01-17T22:33:36.474Z,99648.16
2018-01-17T22:36:05.610Z,99659.47
2018-01-17T22:38:34.046Z,99661.23
2018-01-17T22:41:02.407Z,99664.72
2018-01-17T22:43:30.766Z,99674.27
2018-01-17T22:45:59.092Z,99674.25
2018-01-17T22:48:27.452Z,99679.89
2018-01-17T22:50:55.782Z,99683.84
2018-01-17T22:53:24.142Z,99684.25
2018-01-17T22:55:53.274Z,99689.03
2018-01-17T22:58:21.590Z,99692.48
2018-01-17T23:00:49.970Z,99686.83
2018-01-17T23:03:19.106Z,99694.23
2018-01-17T23:05:47.490Z,99695.97
2018-01-17T23:08:15.854Z,99687.23
2018-01-17T23:10:44.170Z,99695.48
2018-01-17T23:13:12.798Z,99700.27
2018-01-17T23:15:41.882Z,99703.31
2018-01-17T23:18:10.270Z,99701.58
2018-01-17T23:20:39.355Z,99704.59
2018-01-17T23:23:08.474Z,99702.01
2018-01-17T23:25:36.853Z,99703.28
2018-01-17T23:28:05.235Z,99709.84
2018-01-17T23:30:33.551Z,99713.73
2018-01-17T23:33:01.969Z,99720.27
2018-01-17T23:35:31.862Z,99720.70
2018-01-17T23:38:00.221Z,99715.91
2018-01-17T23:40:28.581Z,99721.60
2018-01-17T23:42:56.957Z,99721.57
2018-01-17T23:45:25.342Z,99716.78
2018-01-17T23:47:53.666Z,99715.04
2018-01-17T23:50:22.021Z,99722.00
2018-01-17T23:52:50.385Z,99725.92
2018-01-17T23:55:18.727Z,99730.25
2018-01-17T23:57:47.078Z,99734.16
